Time;durP1;ratioP1;P1;durP2;ratioP2;P2;SDS_P1;SDS_P2;PMS_P1;PMS_P2;Temp;Humidity;BMP_temperature;BMP_pressure;BME280_temperature;BME280_humidity;BME280_pressure;Samples;Min_cycle;Max_cycle;Signal;HPM_P1;HPM_P2
2022/03/01 00:02:20;;;;;;;1999.90;999.90;;;12.20;57.10;;;;;;4994923;28;20044;-80
2022/03/01 00:04:46;;;;;;;1999.90;999.90;;;12.20;57.10;;;;;;5011196;28;20391;-80
2022/03/01 00:07:12;;;;;;;1999.90;999.90;;;12.30;57.10;;;;;;5011817;28;20049;-79
2022/03/01 00:09:39;;;;;;;1999.90;999.90;;;12.20;57.10;;;;;;5013183;28;20034;-80
2022/03/01 00:12:05;;;;;;;1999.90;999.90;;;12.20;57.20;;;;;;4995821;28;20038;-80
2022/03/01 00:14:32;;;;;;;1999.90;999.90;;;12.20;57.20;;;;;;5029415;28;20499;-80
2022/03/01 00:16:58;;;;;;;1999.90;999.90;;;12.20;57.20;;;;;;4994962;28;20034;-80
2022/03/01 00:19:27;;;;;;;1999.90;999.90;;;12.20;57.30;;;;;;4980266;28;20510;-79
2022/03/01 00:21:53;;;;;;;1999.90;999.90;;;12.10;57.30;;;;;;5013093;28;20022;-80
2022/03/01 00:24:19;;;;;;;1999.90;999.90;;;12.10;57.30;;;;;;5012622;28;20068;-79
2022/03/01 00:26:46;;;;;;;1999.90;999.90;;;12.10;57.30;;;;;;5024222;28;20494;-80
2022/03/01 00:29:12;;;;;;;1999.90;999.90;;;12.10;57.30;;;;;;4994584;28;20037;-80
2022/03/01 00:31:38;;;;;;;1999.90;999.90;;;12.10;57.30;;;;;;5011256;28;20030;-79
2022/03/01 00:34:04;;;;;;;1999.90;999.90;;;12.10;57.30;;;;;;5028165;28;20041;-80
2022/03/01 00:36:30;;;;;;;1999.90;999.90;;;12.10;57.30;;;;;;5013378;28;20037;-79
2022/03/01 00:38:57;;;;;;;1999.90;999.90;;;12.10;57.30;;;;;;4994185;28;20041;-80
2022/03/01 00:41:23;;;;;;;1999.90;999.90;;;12.00;57.30;;;;;;5027832;28;20033;-80
2022/03/01 00:43:49;;;;;;;1999.90;999.90;;;12.00;57.30;;;;;;5005292;28;20042;-80
2022/03/01 00:46:15;;;;;;;1999.90;999.90;;;12.00;57.40;;;;;;5028869;28;20041;-80
2022/03/01 00:48:41;;;;;;;1999.90;999.90;;;12.00;57.40;;;;;;5010346;28;20045;-80
2022/03/01 00:51:07;;;;;;;1999.90;999.90;;;12.00;57.40;;;;;;4991293;28;20038;-80
2022/03/01 00:53:33;;;;;;;1999.90;999.90;;;12.00;57.40;;;;;;5011150;28;20482;-79
2022/03/01 00:56:04;;;;;;;1999.90;999.90;;;11.90;57.30;;;;;;5012719;28;20033;-79
2022/03/01 00:58:31;;;;;;;1999.90;999.90;;;12.00;57.40;;;;;;4998290;28;20022;-80
2022/03/01 01:00:57;;;;;;;1999.90;999.90;;;11.90;57.30;;;;;;4994893;28;20030;-80
2022/03/01 01:03:23;;;;;;;1999.90;999.90;;;11.90;57.40;;;;;;5012696;28;20033;-80
2022/03/01 01:05:49;;;;;;;1999.90;999.90;;;11.90;57.40;;;;;;5045221;28;20044;-79
2022/03/01 01:08:15;;;;;;;1999.90;999.90;;;11.90;57.40;;;;;;4993859;28;20383;-80
2022/03/01 01:10:41;;;;;;;1999.90;999.90;;;11.90;57.40;;;;;;5027181;28;20029;-80
2022/03/01 01:13:07;;;;;;;1999.90;999.90;;;11.90;57.40;;;;;;5012019;28;20049;-79
2022/03/01 01:15:33;;;;;;;1999.90;999.90;;;12.00;57.40;;;;;;4992804;28;20057;-80
2022/03/01 01:18:00;;;;;;;1999.90;999.90;;;12.00;57.30;;;;;;5013569;28;20026;-79
2022/03/01 01:20:26;;;;;;;1999.90;999.90;;;12.00;57.30;;;;;;5012547;28;20026;-80
2022/03/01 01:22:52;;;;;;;1999.90;999.90;;;12.00;57.30;;;;;;5044610;28;20046;-79
2022/03/01 01:25:20;;;;;;;1999.90;999.90;;;12.00;57.30;;;;;;5009640;28;20056;-79
2022/03/01 01:27:49;;;;;;;1999.90;999.90;;;12.10;57.30;;;;;;5011528;28;20034;-80
2022/03/01 01:30:18;;;;;;;1999.90;999.90;;;12.00;57.30;;;;;;4994065;28;20051;-80
2022/03/01 01:32:47;;;;;;;1999.90;999.90;;;12.00;57.30;;;;;;5011465;28;20044;-80
2022/03/01 01:35:13;;;;;;;1999.90;999.90;;;12.00;57.40;;;;;;5020238;28;20042;-80
2022/03/01 01:37:39;;;;;;;1999.90;999.90;;;12.00;57.40;;;;;;5026111;28;20030;-80
2022/03/01 01:40:07;;;;;;;1999.90;999.90;;;12.00;57.40;;;;;;5027781;28;20407;-80
2022/03/01 01:42:33;;;;;;;1999.90;999.90;;;11.90;57.40;;;;;;5012403;28;20029;-79
2022/03/01 01:45:00;;;;;;;1999.90;999.90;;;11.90;57.50;;;;;;4992939;28;20482;-79
2022/03/01 01:47:26;;;;;;;1999.90;999.90;;;11.90;57.50;;;;;;5012051;28;20034;-80
2022/03/01 01:49:52;;;;;;;1999.90;999.90;;;11.80;57.60;;;;;;5009457;28;20034;-80
2022/03/01 01:52:18;;;;;;;1999.90;999.90;;;11.80;57.70;;;;;;5026640;28;20330;-80
2022/03/01 01:54:45;;;;;;;1999.90;999.90;;;11.70;57.60;;;;;;5012307;28;20053;-79
2022/03/01 01:57:15;;;;;;;1999.90;999.90;;;11.70;57.70;;;;;;5008951;28;20475;-80
2022/03/01 01:59:41;;;;;;;1999.90;999.90;;;11.70;57.80;;;;;;5008146;28;20407;-79
2022/03/01 02:02:10;;;;;;;1999.90;999.90;;;11.70;57.80;;;;;;5039376;28;20537;-79
2022/03/01 02:04:36;;;;;;;1999.90;999.90;;;11.70;57.90;;;;;;5009599;28;20056;-79
2022/03/01 02:07:03;;;;;;;1999.90;999.90;;;11.70;57.90;;;;;;5010972;28;20026;-79
2022/03/01 02:09:29;;;;;;;1999.90;999.90;;;11.70;57.90;;;;;;5010994;28;20041;-80
2022/03/01 02:11:55;;;;;;;1999.90;999.90;;;11.60;57.90;;;;;;5007489;28;20054;-79
2022/03/01 02:14:21;;;;;;;1999.90;999.90;;;11.60;57.90;;;;;;5020440;28;20402;-80
2022/03/01 02:16:47;;;;;;;1999.90;999.90;;;11.60;57.90;;;;;;5023929;28;20495;-79
2022/03/01 02:19:13;;;;;;;1999.90;999.90;;;11.60;57.90;;;;;;5026175;28;20034;-79
2022/03/01 02:21:50;;;;;;;1999.90;999.90;;;11.60;57.90;;;;;;5012000;28;20041;-80
2022/03/01 02:24:17;;;;;;;1999.90;999.90;;;11.60;58.00;;;;;;5011472;28;20050;-79
2022/03/01 02:26:43;;;;;;;1999.90;999.90;;;11.60;57.90;;;;;;5042949;28;20022;-80
2022/03/01 02:29:09;;;;;;;1999.90;999.90;;;11.60;58.00;;;;;;4992651;28;20097;-80
2022/03/01 02:31:35;;;;;;;1999.90;999.90;;;11.60;58.10;;;;;;5010744;28;20030;-80
2022/03/01 02:34:01;;;;;;;1999.90;999.90;;;11.50;58.20;;;;;;5012514;28;20037;-79
2022/03/01 02:36:27;;;;;;;1999.90;999.90;;;11.50;58.20;;;;;;5010290;28;20387;-79
2022/03/01 02:38:54;;;;;;;1999.90;999.90;;;11.50;58.30;;;;;;4991224;28;20025;-80
2022/03/01 02:41:20;;;;;;;1999.90;999.90;;;11.40;58.30;;;;;;5010996;28;20364;-80
2022/03/01 02:43:46;;;;;;;1999.90;999.90;;;11.40;58.30;;;;;;5011466;28;20030;-80
2022/03/01 02:46:12;;;;;;;1999.90;999.90;;;11.40;58.30;;;;;;5008553;28;20057;-79
2022/03/01 02:48:38;;;;;;;1999.90;999.90;;;11.40;58.30;;;;;;5012480;28;20470;-80
2022/03/01 02:51:04;;;;;;;1999.90;999.90;;;11.50;58.30;;;;;;5010820;28;20034;-80
2022/03/01 02:53:30;;;;;;;1999.90;999.90;;;11.50;58.30;;;;;;5041559;28;20026;-80
2022/03/01 02:55:56;;;;;;;1999.90;999.90;;;11.50;58.30;;;;;;5010849;28;20060;-80
2022/03/01 02:58:22;;;;;;;1999.90;999.90;;;11.50;58.20;;;;;;5011095;28;20045;-80
2022/03/01 03:00:48;;;;;;;1999.90;999.90;;;11.50;58.30;;;;;;5010726;28;20040;-80
2022/03/01 03:03:15;;;;;;;1999.90;999.90;;;11.50;58.30;;;;;;5008974;28;20561;-80
2022/03/01 03:05:41;;;;;;;1999.90;999.90;;;11.50;58.30;;;;;;5002238;28;20046;-80
2022/03/01 03:08:07;;;;;;;1999.90;999.90;;;11.50;58.30;;;;;;5000766;28;20029;-80
2022/03/01 03:10:33;;;;;;;1999.90;999.90;;;11.50;58.40;;;;;;5005338;28;20391;-80
2022/03/01 03:13:03;;;;;;;1999.90;999.90;;;11.50;58.40;;;;;;5010973;28;20037;-80
2022/03/01 03:15:30;;;;;;;1999.90;999.90;;;11.50;58.40;;;;;;5024038;28;20395;-80
2022/03/01 03:17:56;;;;;;;1999.90;999.90;;;11.50;58.50;;;;;;4990575;28;20042;-80
2022/03/01 03:20:22;;;;;;;1999.90;999.90;;;11.40;58.50;;;;;;5011496;28;20053;-80
2022/03/01 03:22:48;;;;;;;1999.90;999.90;;;11.40;58.50;;;;;;5025803;28;20038;-80
2022/03/01 03:25:15;;;;;;;1999.90;999.90;;;11.50;58.60;;;;;;5013133;28;20026;-80
2022/03/01 03:27:41;;;;;;;1999.90;999.90;;;11.50;58.50;;;;;;5013080;28;20033;-80
2022/03/01 03:30:07;;;;;;;1999.90;999.90;;;11.50;58.60;;;;;;5009969;28;20037;-79
2022/03/01 03:32:33;;;;;;;1999.90;999.90;;;11.50;58.50;;;;;;4995505;28;20038;-80
2022/03/01 03:35:00;;;;;;;1999.90;999.90;;;11.50;58.50;;;;;;5011112;28;20053;-80
2022/03/01 03:37:26;;;;;;;1999.90;999.90;;;11.50;58.50;;;;;;5035239;28;20124;-80
2022/03/01 03:39:52;;;;;;;1999.90;999.90;;;11.50;58.60;;;;;;4978313;28;20476;-80
2022/03/01 03:42:19;;;;;;;1999.90;999.90;;;11.50;58.60;;;;;;5046367;28;20041;-80
2022/03/01 03:44:45;;;;;;;1999.90;999.90;;;11.40;58.60;;;;;;4996566;28;20034;-80
2022/03/01 03:47:11;;;;;;;1999.90;999.90;;;11.40;58.70;;;;;;5011141;28;20038;-80
2022/03/01 03:49:38;;;;;;;1999.90;999.90;;;11.40;58.70;;;;;;4995911;28;20033;-80
2022/03/01 03:52:05;;;;;;;1999.90;999.90;;;11.40;58.70;;;;;;5013736;28;20037;-80
2022/03/01 03:54:31;;;;;;;1999.90;999.90;;;11.30;58.80;;;;;;5012187;28;20037;-80
2022/03/01 03:56:57;;;;;;;1999.90;999.90;;;11.30;58.80;;;;;;5046137;28;20021;-80
2022/03/01 03:59:24;;;;;;;1999.90;999.90;;;11.30;58.90;;;;;;5012465;28;20045;-80
2022/03/01 04:01:50;;;;;;;1999.90;999.90;;;11.30;58.90;;;;;;4993554;28;20033;-80
2022/03/01 04:04:16;;;;;;;1999.90;999.90;;;11.30;58.90;;;;;;4997445;28;20030;-80
2022/03/01 04:06:42;;;;;;;1999.90;999.90;;;11.30;58.90;;;;;;5012160;28;20026;-80
2022/03/01 04:09:09;;;;;;;1999.90;999.90;;;11.30;58.90;;;;;;5013298;28;20057;-80
2022/03/01 04:11:35;;;;;;;1999.90;999.90;;;11.30;58.90;;;;;;5011857;28;20038;-80
2022/03/01 04:14:01;;;;;;;1999.90;999.90;;;11.30;58.90;;;;;;5029340;28;20055;-80
2022/03/01 04:16:30;;;;;;;1999.90;999.90;;;11.30;59.00;;;;;;4995975;28;20057;-80
2022/03/01 04:18:56;;;;;;;1999.90;999.90;;;11.30;59.00;;;;;;4997397;28;20478;-80
2022/03/01 04:21:23;;;;;;;1999.90;999.90;;;11.30;59.00;;;;;;5013419;28;20501;-80
2022/03/01 04:23:49;;;;;;;1999.90;999.90;;;11.30;59.10;;;;;;5012261;28;20034;-80
2022/03/01 04:26:15;;;;;;;1999.90;999.90;;;11.20;59.10;;;;;;5008053;28;20044;-80
2022/03/01 04:28:42;;;;;;;1999.90;999.90;;;11.20;59.10;;;;;;5013760;28;20517;-80
2022/03/01 04:31:08;;;;;;;1999.90;999.90;;;11.20;59.10;;;;;;5011506;28;20034;-80
2022/03/01 04:33:34;;;;;;;1999.90;999.90;;;11.20;59.20;;;;;;5012739;28;20467;-80
2022/03/01 04:36:02;;;;;;;1999.90;999.90;;;11.20;59.20;;;;;;5012037;28;20037;-80
2022/03/01 04:38:29;;;;;;;1999.90;999.90;;;11.20;59.20;;;;;;5012376;28;20382;-80
2022/03/01 04:40:56;;;;;;;1999.90;999.90;;;11.20;59.30;;;;;;5011741;28;20394;-79
2022/03/01 04:43:22;;;;;;;1999.90;999.90;;;11.10;59.30;;;;;;5044201;28;20038;-79
2022/03/01 04:45:49;;;;;;;1999.90;999.90;;;11.10;59.40;;;;;;5013403;28;20030;-79
2022/03/01 04:48:15;;;;;;;1999.90;999.90;;;11.00;59.50;;;;;;5010690;28;20030;-82
2022/03/01 04:50:41;;;;;;;1999.90;999.90;;;11.00;59.50;;;;;;4995848;28;20021;-82
2022/03/01 04:53:07;;;;;;;1999.90;999.90;;;11.00;59.50;;;;;;5012177;28;20045;-82
2022/03/01 04:55:34;;;;;;;1999.90;999.90;;;11.00;59.50;;;;;;5013231;28;20037;-81
2022/03/01 04:58:00;;;;;;;1999.90;999.90;;;11.00;59.60;;;;;;5013331;28;20042;-82
2022/03/01 05:00:26;;;;;;;1999.90;999.90;;;11.00;59.60;;;;;;4994726;28;20037;-82
2022/03/01 05:02:53;;;;;;;1999.90;999.90;;;11.00;59.60;;;;;;5009836;28;20044;-81
2022/03/01 05:05:19;;;;;;;1999.90;999.90;;;11.00;59.60;;;;;;5013405;28;20045;-81
2022/03/01 05:07:47;;;;;;;1999.90;999.90;;;11.00;59.50;;;;;;5009797;28;20094;-82
2022/03/01 05:10:17;;;;;;;1999.90;999.90;;;11.00;59.50;;;;;;5028813;28;20029;-81
2022/03/01 05:12:52;;;;;;;1999.90;999.90;;;11.00;59.60;;;;;;5010793;28;20041;-81
2022/03/01 05:15:19;;;;;;;1999.90;999.90;;;11.00;59.70;;;;;;5010002;28;20402;-81
2022/03/01 05:17:45;;;;;;;1999.90;999.90;;;10.90;59.60;;;;;;4993058;28;20025;-83
2022/03/01 05:20:13;;;;;;;1999.90;999.90;;;10.90;60.00;;;;;;5009366;28;20037;-81
2022/03/01 05:22:39;;;;;;;1999.90;999.90;;;10.90;59.70;;;;;;5010683;28;20069;-83
2022/03/01 05:25:06;;;;;;;1999.90;999.90;;;10.90;59.70;;;;;;5013203;28;20034;-81
2022/03/01 05:27:32;;;;;;;1999.90;999.90;;;10.90;59.70;;;;;;5010197;28;20022;-80
2022/03/01 05:29:59;;;;;;;1999.90;999.90;;;10.90;59.60;;;;;;5010286;28;20045;-80
2022/03/01 05:32:25;;;;;;;1999.90;999.90;;;10.90;59.70;;;;;;5009785;28;20037;-81
2022/03/01 05:34:51;;;;;;;1999.90;999.90;;;10.90;59.70;;;;;;5009485;28;20137;-80
2022/03/01 05:37:17;;;;;;;1999.90;999.90;;;10.90;59.70;;;;;;5010343;28;20029;-80
2022/03/01 05:39:44;;;;;;;1999.90;999.90;;;10.90;59.70;;;;;;4996223;28;20029;-80
2022/03/01 05:42:10;;;;;;;1999.90;999.90;;;10.90;59.80;;;;;;5009301;28;20037;-80
2022/03/01 05:44:36;;;;;;;1999.90;999.90;;;10.90;59.80;;;;;;5009216;28;20029;-79
2022/03/01 05:47:02;;;;;;;1999.90;999.90;;;10.90;59.80;;;;;;5010512;28;20029;-80
2022/03/01 05:49:28;;;;;;;1999.90;999.90;;;10.90;59.80;;;;;;5009326;28;20052;-79
2022/03/01 05:51:54;;;;;;;1999.90;999.90;;;10.90;59.90;;;;;;5010686;28;20030;-80
2022/03/01 05:54:21;;;;;;;1999.90;999.90;;;10.90;59.90;;;;;;5011640;28;20038;-79
2022/03/01 05:56:47;;;;;;;1999.90;999.90;;;11.00;59.90;;;;;;5011283;28;20117;-80
2022/03/01 05:59:13;;;;;;;1999.90;999.90;;;10.90;59.80;;;;;;5011339;28;20041;-79
2022/03/01 06:01:39;;;;;;;1999.90;999.90;;;10.90;60.00;;;;;;5010637;28;20403;-79
2022/03/01 06:04:05;;;;;;;1999.90;999.90;;;10.80;60.00;;;;;;5028058;28;20398;-79
2022/03/01 06:06:31;;;;;;;1999.90;999.90;;;10.80;60.10;;;;;;4991390;28;20053;-79
2022/03/01 06:08:57;;;;;;;1999.90;999.90;;;10.80;60.10;;;;;;5010102;28;20030;-79
2022/03/01 06:11:23;;;;;;;1999.90;999.90;;;10.80;60.10;;;;;;5010368;28;20060;-79
2022/03/01 06:13:49;;;;;;;1999.90;999.90;;;10.80;60.10;;;;;;5011200;28;20030;-79
2022/03/01 06:16:15;;;;;;;1999.90;999.90;;;10.80;60.10;;;;;;5009752;28;20042;-80
2022/03/01 06:18:41;;;;;;;1999.90;999.90;;;10.80;60.10;;;;;;5011722;28;20386;-79
2022/03/01 06:21:08;;;;;;;1999.90;999.90;;;10.80;60.10;;;;;;4993211;28;20069;-80
2022/03/01 06:23:34;;;;;;;1999.90;999.90;;;10.80;60.10;;;;;;5007915;28;20073;-79
2022/03/01 06:26:00;;;;;;;1999.90;999.90;;;10.70;60.10;;;;;;5005098;28;20034;-79
2022/03/01 06:28:26;;;;;;;1999.90;999.90;;;10.70;60.20;;;;;;5025542;28;20033;-79
2022/03/01 06:30:53;;;;;;;1999.90;999.90;;;10.70;60.30;;;;;;5043375;28;20037;-79
2022/03/01 06:33:19;;;;;;;1999.90;999.90;;;10.60;60.30;;;;;;5008246;28;20042;-79
2022/03/01 06:35:45;;;;;;;1999.90;999.90;;;10.60;60.50;;;;;;5010581;28;20502;-79
2022/03/01 06:38:11;;;;;;;1999.90;999.90;;;10.60;60.50;;;;;;4991769;28;20040;-79
2022/03/01 06:40:38;;;;;;;1999.90;999.90;;;10.50;60.50;;;;;;4991031;28;20054;-79
2022/03/01 06:43:04;;;;;;;1999.90;999.90;;;10.50;60.50;;;;;;5010262;28;20022;-79
2022/03/01 06:45:32;;;;;;;1999.90;999.90;;;10.50;60.60;;;;;;5010709;28;20040;-79
2022/03/01 06:47:58;;;;;;;1999.90;999.90;;;10.40;60.70;;;;;;5024435;28;20426;-79
2022/03/01 06:50:25;;;;;;;1999.90;999.90;;;10.40;60.90;;;;;;5007958;28;20340;-79
2022/03/01 06:52:51;;;;;;;1999.90;999.90;;;10.30;60.90;;;;;;5007970;28;20384;-79
2022/03/01 06:55:19;;;;;;;1999.90;999.90;;;10.30;61.00;;;;;;5009290;28;20042;-78
2022/03/01 06:57:45;;;;;;;1999.90;999.90;;;10.30;60.90;;;;;;5010643;28;20025;-79
2022/03/01 07:00:12;;;;;;;1999.90;999.90;;;10.30;60.90;;;;;;5007061;28;20042;-79
2022/03/01 07:02:38;;;;;;;1999.90;999.90;;;10.30;60.80;;;;;;4974915;28;20041;-79
2022/03/01 07:05:06;;;;;;;1999.90;999.90;;;10.40;60.80;;;;;;4998559;28;20025;-80
2022/03/01 07:07:32;;;;;;;1999.90;999.90;;;10.40;60.80;;;;;;5010917;28;20034;-79
2022/03/01 07:09:58;;;;;;;1999.90;999.90;;;10.40;60.80;;;;;;5006659;28;20034;-79
2022/03/01 07:12:24;;;;;;;1999.90;999.90;;;10.30;60.80;;;;;;5009764;28;20033;-79
2022/03/01 07:14:52;;;;;;;1999.90;999.90;;;10.30;60.90;;;;;;5010612;28;20021;-79
2022/03/01 07:17:18;;;;;;;1999.90;999.90;;;10.30;62.00;;;;;;5010100;28;20034;-83
2022/03/01 07:19:44;;;;;;;1999.90;999.90;;;10.20;61.30;;;;;;4991019;28;20026;-79
2022/03/01 07:22:10;;;;;;;1999.90;999.90;;;10.30;61.30;;;;;;5009943;28;20494;-78
2022/03/01 07:24:36;;;;;;;1999.90;999.90;;;10.40;61.10;;;;;;5009537;28;20037;-78
2022/03/01 07:27:03;;;;;;;1999.90;999.90;;;10.40;61.00;;;;;;4992733;28;20038;-78
2022/03/01 07:29:30;;;;;;;1999.90;999.90;;;10.50;60.90;;;;;;5007113;28;20406;-79
2022/03/01 07:31:58;;;;;;;1999.90;999.90;;;10.50;60.80;;;;;;5007493;28;20050;-79
2022/03/01 07:34:24;;;;;;;1999.90;999.90;;;10.50;60.90;;;;;;5007132;28;20537;-80
2022/03/01 07:36:50;;;;;;;1999.90;999.90;;;10.50;60.90;;;;;;5005708;28;20484;-82
2022/03/01 07:39:16;;;;;;;1999.90;999.90;;;10.50;60.80;;;;;;5008558;28;20034;-82
2022/03/01 07:41:42;;;;;;;1999.90;999.90;;;10.50;60.70;;;;;;5007650;28;20034;-81
2022/03/01 07:44:08;;;;;;;1999.90;999.90;;;10.50;60.80;;;;;;5007078;28;20395;-81
2022/03/01 07:46:34;;;;;;;1999.90;999.90;;;10.60;60.80;;;;;;5007176;28;20030;-81
2022/03/01 07:49:00;;;;;;;1999.90;999.90;;;10.60;60.80;;;;;;5010809;28;20042;-82
2022/03/01 07:51:27;;;;;;;1999.90;999.90;;;10.60;60.90;;;;;;5022655;28;20065;-82
2022/03/01 07:53:53;;;;;;;1999.90;999.90;;;10.60;60.90;;;;;;5021095;28;20046;-80
2022/03/01 07:56:22;;;;;;;1999.90;999.90;;;10.60;60.90;;;;;;5007824;28;20413;-79
2022/03/01 07:58:48;;;;;;;1999.90;999.90;;;10.60;61.00;;;;;;5009530;28;20502;-84
2022/03/01 08:01:15;;;;;;;1999.90;999.90;;;10.70;61.20;;;;;;5011893;28;20050;-80
2022/03/01 08:03:41;;;;;;;1999.90;999.90;;;10.80;61.10;;;;;;5011155;28;20375;-80
2022/03/01 08:06:07;;;;;;;1999.90;999.90;;;10.90;60.80;;;;;;5015019;28;20041;-80
2022/03/01 08:08:34;;;;;;;1999.90;999.90;;;10.90;60.80;;;;;;5008535;28;20416;-79
2022/03/01 08:11:00;;;;;;;1999.90;999.90;;;10.90;60.80;;;;;;5009477;28;20050;-80
2022/03/01 08:13:27;;;;;;;1999.90;999.90;;;10.90;60.80;;;;;;5013462;28;20069;-80
2022/03/01 08:15:53;;;;;;;1999.90;999.90;;;10.90;60.80;;;;;;4992237;28;20046;-79
2022/03/01 08:18:19;;;;;;;1999.90;999.90;;;10.90;60.90;;;;;;5011157;28;20038;-79
2022/03/01 08:20:45;;;;;;;1999.90;999.90;;;10.80;60.90;;;;;;5041964;28;20030;-79
2022/03/01 08:23:11;;;;;;;1999.90;999.90;;;10.80;60.90;;;;;;5014082;28;20056;-79
2022/03/01 08:25:37;;;;;;;1999.90;999.90;;;10.90;61.00;;;;;;5014585;28;20064;-80
2022/03/01 08:28:03;;;;;;;1999.90;999.90;;;10.90;60.90;;;;;;5014971;28;20033;-79
2022/03/01 08:30:30;;;;;;;1999.90;999.90;;;10.90;60.90;;;;;;5013886;28;20092;-80
2022/03/01 08:32:56;;;;;;;1999.90;999.90;;;10.90;60.90;;;;;;5012449;28;20403;-79
2022/03/01 08:35:22;;;;;;;1999.90;999.90;;;11.00;61.00;;;;;;5012972;28;20057;-80
2022/03/01 08:37:50;;;;;;;1999.90;999.90;;;11.00;61.00;;;;;;5012837;28;20030;-88
2022/03/01 08:40:18;;;;;;;1999.90;999.90;;;11.00;60.90;;;;;;5028539;28;20041;-85
2022/03/01 08:42:45;;;;;;;1999.90;999.90;;;11.10;60.90;;;;;;5013544;28;20022;-86
2022/03/01 08:45:11;;;;;;;1999.90;999.90;;;11.30;60.70;;;;;;5039885;28;20394;-83
2022/03/01 08:47:38;;;;;;;1999.90;999.90;;;11.50;60.60;;;;;;5028383;28;20049;-79
2022/03/01 08:50:05;;;;;;;1999.90;999.90;;;11.60;60.30;;;;;;5013544;28;20046;-84
2022/03/01 08:52:31;;;;;;;1999.90;999.90;;;11.80;60.10;;;;;;5029243;28;20048;-80
2022/03/01 08:54:57;;;;;;;1999.90;999.90;;;11.90;59.90;;;;;;4992789;28;20065;-80
2022/03/01 08:57:23;;;;;;;1999.90;999.90;;;12.00;59.70;;;;;;5013174;28;20490;-80
2022/03/01 08:59:49;;;;;;;1999.90;999.90;;;12.10;59.70;;;;;;5013759;28;20037;-79
2022/03/01 09:02:17;;;;;;;1999.90;999.90;;;12.10;59.70;;;;;;5012251;28;20526;-78
2022/03/01 09:04:47;;;;;;;1999.90;999.90;;;12.10;59.70;;;;;;5012119;28;20022;-78
2022/03/01 09:07:13;;;;;;;1999.90;999.90;;;12.10;59.70;;;;;;5010409;28;20030;-79
2022/03/01 09:09:39;;;;;;;1999.90;999.90;;;12.20;59.70;;;;;;5013097;28;20033;-79
2022/03/01 09:12:05;;;;;;;1999.90;999.90;;;12.20;59.60;;;;;;4990125;28;20391;-79
2022/03/01 09:14:31;;;;;;;1999.90;999.90;;;12.20;59.60;;;;;;5007300;28;20216;-79
2022/03/01 09:16:57;;;;;;;1999.90;999.90;;;12.30;59.70;;;;;;5012998;28;20050;-78
2022/03/01 09:19:23;;;;;;;1999.90;999.90;;;12.30;59.60;;;;;;5012881;28;20034;-78
2022/03/01 09:21:50;;;;;;;1999.90;999.90;;;12.40;59.60;;;;;;5009179;28;20038;-78
2022/03/01 09:24:16;;;;;;;1999.90;999.90;;;12.50;59.50;;;;;;5012968;28;20053;-78
2022/03/01 09:26:42;;;;;;;1999.90;999.90;;;12.70;59.30;;;;;;5012063;28;20030;-78
2022/03/01 09:29:08;;;;;;;1999.90;999.90;;;12.80;59.20;;;;;;5012694;28;20038;-78
2022/03/01 09:31:34;;;;;;;1999.90;999.90;;;12.80;59.10;;;;;;5012336;28;20034;-79
2022/03/01 09:34:00;;;;;;;1999.90;999.90;;;12.90;59.10;;;;;;5043339;28;20022;-79
2022/03/01 09:36:28;;;;;;;1999.90;999.90;;;13.10;59.10;;;;;;5026415;28;20068;-79
2022/03/01 09:38:54;;;;;;;1999.90;999.90;;;13.20;59.00;;;;;;5012521;28;20037;-79
2022/03/01 09:41:20;;;;;;;1999.90;999.90;;;13.30;58.80;;;;;;5009824;28;20030;-78
2022/03/01 09:43:46;;;;;;;1999.90;999.90;;;13.50;59.30;;;;;;4993576;28;20042;-80
2022/03/01 09:46:12;;;;;;;1999.90;999.90;;;13.70;58.60;;;;;;5027120;28;20041;-80
2022/03/01 09:48:38;;;;;;;1999.90;999.90;;;13.80;58.50;;;;;;5011095;28;20034;-78
2022/03/01 09:51:05;;;;;;;1999.90;999.90;;;13.90;58.50;;;;;;4993701;28;20037;-80
2022/03/01 09:53:32;;;;;;;1999.90;999.90;;;13.90;58.40;;;;;;5009671;28;20038;-78
2022/03/01 09:56:00;;;;;;;1999.90;999.90;;;14.00;58.40;;;;;;5011798;28;20050;-79
2022/03/01 09:58:26;;;;;;;1999.90;999.90;;;14.00;58.30;;;;;;4993957;28;20042;-78
2022/03/01 10:00:52;;;;;;;1999.90;999.90;;;14.00;58.30;;;;;;5011916;28;20045;-78
2022/03/01 10:03:19;;;;;;;1999.90;999.90;;;14.00;58.40;;;;;;5025296;28;20041;-80
2022/03/01 10:05:46;;;;;;;1999.90;999.90;;;14.00;58.50;;;;;;5009369;28;20030;-82
2022/03/01 10:08:14;;;;;;;1999.90;999.90;;;14.00;58.50;;;;;;5008016;28;20040;-80
2022/03/01 10:10:46;;;;;;;1999.90;999.90;;;14.00;58.50;;;;;;5043479;28;20026;-79
2022/03/01 10:13:22;;;;;;;1999.90;999.90;;;14.00;58.40;;;;;;5039884;28;20030;-79
2022/03/01 10:15:51;;;;;;;1999.90;999.90;;;14.10;58.40;;;;;;5010788;28;20042;-78
2022/03/01 10:18:18;;;;;;;1999.90;999.90;;;14.20;58.40;;;;;;4991947;28;20049;-79
2022/03/01 10:20:45;;;;;;;1999.90;999.90;;;14.20;58.20;;;;;;5026597;28;20034;-80
2022/03/01 10:23:13;;;;;;;1999.90;999.90;;;14.20;58.10;;;;;;4992948;28;20049;-80
2022/03/01 10:25:43;;;;;;;1999.90;999.90;;;14.20;58.10;;;;;;4993753;28;20034;-79
2022/03/01 10:28:09;;;;;;;1999.90;999.90;;;14.30;58.10;;;;;;5010952;28;20034;-82
2022/03/01 10:30:36;;;;;;;1999.90;999.90;;;14.50;58.00;;;;;;4990043;28;20045;-82
2022/03/01 10:33:13;;;;;;;1999.90;999.90;;;14.60;57.90;;;;;;4989895;28;20608;-79
2022/03/01 10:35:42;;;;;;;1999.90;999.90;;;14.70;57.80;;;;;;5024943;28;20042;-80
2022/03/01 10:38:09;;;;;;;1999.90;999.90;;;14.70;57.70;;;;;;5009446;28;20041;-83
2022/03/01 10:40:37;;;;;;;1999.90;999.90;;;14.80;57.60;;;;;;5043629;28;20034;-81
2022/03/01 10:43:11;;;;;;;1999.90;999.90;;;14.80;57.50;;;;;;5009646;28;20045;-81
2022/03/01 10:45:46;;;;;;;1999.90;999.90;;;14.90;57.50;;;;;;5007045;28;20174;-78
2022/03/01 10:48:29;;;;;;;1999.90;999.90;;;15.00;57.50;;;;;;5010539;28;20033;-80
2022/03/01 10:51:09;;;;;;;1999.90;999.90;;;15.00;57.40;;;;;;5027811;28;20041;-81
2022/03/01 10:53:39;;;;;;;1999.90;999.90;;;15.00;57.30;;;;;;5007516;28;20025;-85
2022/03/01 10:56:08;;;;;;;1999.90;999.90;;;15.00;57.40;;;;;;5023272;28;20045;-83
2022/03/01 10:58:36;;;;;;;1999.90;999.90;;;15.10;57.40;;;;;;5008771;28;20032;-84
2022/03/01 11:01:05;;;;;;;1999.90;999.90;;;15.20;57.30;;;;;;5010852;28;20025;-85
2022/03/01 11:03:32;;;;;;;1999.90;999.90;;;15.30;57.20;;;;;;5009236;28;20494;-88
2022/03/01 11:05:58;;;;;;;1999.90;999.90;;;15.40;57.10;;;;;;4993368;28;20026;-87
2022/03/01 11:08:37;;;;;;;1999.90;999.90;;;15.50;56.90;;;;;;5006723;28;20030;-87
2022/03/01 11:11:05;;;;;;;1999.90;999.90;;;15.60;56.90;;;;;;5008987;28;20021;-85
2022/03/01 11:13:34;;;;;;;1999.90;999.90;;;15.70;56.80;;;;;;5009398;28;20395;-85
2022/03/01 11:16:13;;;;;;;1999.90;999.90;;;15.80;56.70;;;;;;4990916;28;20034;-86
2022/03/01 11:18:48;;;;;;;1999.90;999.90;;;15.90;56.70;;;;;;5009508;28;20403;-85
2022/03/01 11:21:14;;;;;;;1999.90;999.90;;;15.90;56.50;;;;;;5007614;28;20030;-85
2022/03/01 11:23:41;;;;;;;1999.90;999.90;;;16.00;56.50;;;;;;5023690;28;20065;-84
2022/03/01 11:26:12;;;;;;;1999.90;999.90;;;16.10;56.50;;;;;;5010274;28;20053;-85
2022/03/01 11:28:41;;;;;;;1999.90;999.90;;;16.10;56.40;;;;;;5008672;28;20046;-85
2022/03/01 11:31:31;;;;;;;1999.90;999.90;;;16.20;56.40;;;;;;5008515;28;20491;-81
2022/03/01 11:34:14;;;;;;;1999.90;999.90;;;16.30;56.40;;;;;;5012420;28;20041;-84
2022/03/01 11:36:48;;;;;;;1999.90;999.90;;;16.30;56.10;;;;;;5014234;28;20517;-84
2022/03/01 11:39:16;;;;;;;1999.90;999.90;;;16.40;56.10;;;;;;4992855;28;20039;-83
2022/03/01 11:41:59;;;;;;;1999.90;999.90;;;16.50;56.10;;;;;;5037101;28;20034;-82
2022/03/01 11:44:25;;;;;;;1999.90;999.90;;;16.60;55.90;;;;;;5002216;28;20031;-79
2022/03/01 11:46:51;;;;;;;1999.90;999.90;;;16.60;55.90;;;;;;5028309;28;20038;-81
2022/03/01 11:49:20;;;;;;;1999.90;999.90;;;16.60;56.00;;;;;;5013533;28;20037;-81
2022/03/01 11:51:49;;;;;;;1999.90;999.90;;;16.60;56.00;;;;;;5012593;28;20041;-80
2022/03/01 11:54:19;;;;;;;1999.90;999.90;;;16.60;56.00;;;;;;5010572;28;20025;-81
2022/03/01 11:56:47;;;;;;;1999.90;999.90;;;16.70;56.00;;;;;;5012021;28;20042;-82
2022/03/01 11:59:13;;;;;;;1999.90;999.90;;;16.70;55.80;;;;;;5024109;28;20040;-81